sensor_id;sensor_type;location;lat;lon;timestamp;temperature;humidity
13049;DHT22;6591;51.446;5.404;2023-03-13T00:04:06;14.00;99.90
13049;DHT22;6591;51.446;5.404;2023-03-13T00:06:38;12.30;99.90
13049;DHT22;6591;51.446;5.404;2023-03-13T00:09:09;12.30;99.90
13049;DHT22;6591;51.446;5.404;2023-03-13T00:11:38;12.30;99.90
13049;DHT22;6591;51.446;5.404;2023-03-13T00:14:06;13.20;99.90
13049;DHT22;6591;51.446;5.404;2023-03-13T00:16:34;12.20;99.90
13049;DHT22;6591;51.446;5.404;2023-03-13T00:19:04;12.20;99.90
13049;DHT22;6591;51.446;5.404;2023-03-13T00:21:33;12.20;99.90
13049;DHT22;6591;51.446;5.404;2023-03-13T00:24:03;14.60;99.90
13049;DHT22;6591;51.446;5.404;2023-03-13T00:26:30;12.20;99.90
13049;DHT22;6591;51.446;5.404;2023-03-13T00:28:58;12.20;99.90
13049;DHT22;6591;51.446;5.404;2023-03-13T00:31:28;12.20;99.90
13049;DHT22;6591;51.446;5.404;2023-03-13T00:33:59;12.90;99.90
13049;DHT22;6591;51.446;5.404;2023-03-13T00:36:30;12.10;99.90
13049;DHT22;6591;51.446;5.404;2023-03-13T00:39:02;12.10;99.90
13049;DHT22;6591;51.446;5.404;2023-03-13T00:41:33;12.70;99.90
13049;DHT22;6591;51.446;5.404;2023-03-13T00:44:03;12.10;99.90
13049;DHT22;6591;51.446;5.404;2023-03-13T00:46:30;12.10;99.90
13049;DHT22;6591;51.446;5.404;2023-03-13T00:48:58;14.10;99.90
13049;DHT22;6591;51.446;5.404;2023-03-13T00:51:26;12.20;99.90
13049;DHT22;6591;51.446;5.404;2023-03-13T00:53:57;12.10;99.90
13049;DHT22;6591;51.446;5.404;2023-03-13T00:56:29;12.10;99.90
13049;DHT22;6591;51.446;5.404;2023-03-13T00:58:58;12.60;99.90
13049;DHT22;6591;51.446;5.404;2023-03-13T01:01:38;12.40;99.90
13049;DHT22;6591;51.446;5.404;2023-03-13T01:04:08;14.20;99.90
13049;DHT22;6591;51.446;5.404;2023-03-13T01:06:39;13.40;99.90
13049;DHT22;6591;51.446;5.404;2023-03-13T01:09:12;12.10;99.90
13049;DHT22;6591;51.446;5.404;2023-03-13T01:11:42;12.60;99.90
13049;DHT22;6591;51.446;5.404;2023-03-13T01:14:15;14.00;99.90
13049;DHT22;6591;51.446;5.404;2023-03-13T01:16:44;11.00;99.90
13049;DHT22;6591;51.446;5.404;2023-03-13T01:19:14;12.20;99.90
13049;DHT22;6591;51.446;5.404;2023-03-13T01:21:44;12.80;99.90
13049;DHT22;6591;51.446;5.404;2023-03-13T01:24:12;12.20;99.90
13049;DHT22;6591;51.446;5.404;2023-03-13T01:26:39;12.20;99.90
13049;DHT22;6591;51.446;5.404;2023-03-13T01:29:07;12.30;99.90
13049;DHT22;6591;51.446;5.404;2023-03-13T01:31:35;12.30;99.90
13049;DHT22;6591;51.446;5.404;2023-03-13T01:34:05;12.30;99.90
13049;DHT22;6591;51.446;5.404;2023-03-13T01:36:35;13.40;99.90
13049;DHT22;6591;51.446;5.404;2023-03-13T01:39:04;12.40;99.90
13049;DHT22;6591;51.446;5.404;2023-03-13T01:41:32;14.20;99.90
13049;DHT22;6591;51.446;5.404;2023-03-13T01:44:03;12.50;99.90
13049;DHT22;6591;51.446;5.404;2023-03-13T01:46:33;14.60;99.90
13049;DHT22;6591;51.446;5.404;2023-03-13T01:49:24;13.70;99.90
13049;DHT22;6591;51.446;5.404;2023-03-13T01:55:13;12.70;99.90
13049;DHT22;6591;51.446;5.404;2023-03-13T01:57:49;12.70;99.90
13049;DHT22;6591;51.446;5.404;2023-03-13T02:00:25;12.70;99.90
13049;DHT22;6591;51.446;5.404;2023-03-13T02:02:58;12.80;99.90
13049;DHT22;6591;51.446;5.404;2023-03-13T02:05:34;12.80;99.90
13049;DHT22;6591;51.446;5.404;2023-03-13T02:08:10;12.80;99.90
13049;DHT22;6591;51.446;5.404;2023-03-13T02:10:50;12.90;99.90
13049;DHT22;6591;51.446;5.404;2023-03-13T02:13:22;12.90;99.90
13049;DHT22;6591;51.446;5.404;2023-03-13T02:15:49;12.90;99.90
13049;DHT22;6591;51.446;5.404;2023-03-13T02:18:18;12.90;99.90
13049;DHT22;6591;51.446;5.404;2023-03-13T02:20:46;13.00;99.90
13049;DHT22;6591;51.446;5.404;2023-03-13T02:23:27;13.50;99.90
13049;DHT22;6591;51.446;5.404;2023-03-13T02:26:00;13.10;99.90
13049;DHT22;6591;51.446;5.404;2023-03-13T02:28:33;13.10;99.90
13049;DHT22;6591;51.446;5.404;2023-03-13T02:31:09;14.60;99.90
13049;DHT22;6591;51.446;5.404;2023-03-13T02:33:39;13.20;99.90
13049;DHT22;6591;51.446;5.404;2023-03-13T02:36:11;15.10;99.90
13049;DHT22;6591;51.446;5.404;2023-03-13T02:38:50;13.30;99.90
13049;DHT22;6591;51.446;5.404;2023-03-13T02:41:23;14.00;99.90
13049;DHT22;6591;51.446;5.404;2023-03-13T02:43:54;14.00;99.90
13049;DHT22;6591;51.446;5.404;2023-03-13T02:46:22;13.20;99.90
13049;DHT22;6591;51.446;5.404;2023-03-13T02:48:54;13.30;99.90
13049;DHT22;6591;51.446;5.404;2023-03-13T02:51:38;14.40;99.90
13049;DHT22;6591;51.446;5.404;2023-03-13T02:54:15;13.30;99.90
13049;DHT22;6591;51.446;5.404;2023-03-13T02:56:47;13.40;99.90
13049;DHT22;6591;51.446;5.404;2023-03-13T02:59:17;13.40;99.90
13049;DHT22;6591;51.446;5.404;2023-03-13T03:01:45;13.40;99.90
13049;DHT22;6591;51.446;5.404;2023-03-13T03:04:13;13.70;99.90
13049;DHT22;6591;51.446;5.404;2023-03-13T03:06:40;14.00;99.90
13049;DHT22;6591;51.446;5.404;2023-03-13T03:09:07;13.70;99.90
13049;DHT22;6591;51.446;5.404;2023-03-13T03:11:36;13.50;99.90
13049;DHT22;6591;51.446;5.404;2023-03-13T03:14:09;13.70;99.90
13049;DHT22;6591;51.446;5.404;2023-03-13T03:16:42;13.70;99.90
13049;DHT22;6591;51.446;5.404;2023-03-13T03:19:10;13.70;99.90
13049;DHT22;6591;51.446;5.404;2023-03-13T03:21:38;13.70;99.90
13049;DHT22;6591;51.446;5.404;2023-03-13T03:24:05;13.70;99.90
13049;DHT22;6591;51.446;5.404;2023-03-13T03:26:33;13.70;99.90
13049;DHT22;6591;51.446;5.404;2023-03-13T03:29:03;13.80;99.90
13049;DHT22;6591;51.446;5.404;2023-03-13T03:31:33;13.80;99.90
13049;DHT22;6591;51.446;5.404;2023-03-13T03:34:00;13.80;99.90
13049;DHT22;6591;51.446;5.404;2023-03-13T03:36:28;14.90;99.90
13049;DHT22;6591;51.446;5.404;2023-03-13T03:38:55;13.90;99.90
13049;DHT22;6591;51.446;5.404;2023-03-13T03:41:25;13.90;99.90
13049;DHT22;6591;51.446;5.404;2023-03-13T03:43:53;13.90;99.90
13049;DHT22;6591;51.446;5.404;2023-03-13T03:46:24;14.20;99.90
13049;DHT22;6591;51.446;5.404;2023-03-13T03:48:54;14.00;99.90
13049;DHT22;6591;51.446;5.404;2023-03-13T03:51:23;14.00;99.90
13049;DHT22;6591;51.446;5.404;2023-03-13T03:53:52;14.30;99.90
13049;DHT22;6591;51.446;5.404;2023-03-13T03:56:20;14.10;99.90
13049;DHT22;6591;51.446;5.404;2023-03-13T03:58:52;14.80;99.90
13049;DHT22;6591;51.446;5.404;2023-03-13T04:01:36;14.10;99.90
13049;DHT22;6591;51.446;5.404;2023-03-13T04:04:06;14.10;99.90
13049;DHT22;6591;51.446;5.404;2023-03-13T04:06:34;14.20;99.90
13049;DHT22;6591;51.446;5.404;2023-03-13T04:09:03;14.20;99.90
13049;DHT22;6591;51.446;5.404;2023-03-13T04:11:31;14.20;99.90
13049;DHT22;6591;51.446;5.404;2023-03-13T04:13:59;14.30;99.90
13049;DHT22;6591;51.446;5.404;2023-03-13T04:16:26;14.30;99.90
13049;DHT22;6591;51.446;5.404;2023-03-13T04:18:54;14.30;99.90
13049;DHT22;6591;51.446;5.404;2023-03-13T04:21:24;14.30;99.90
13049;DHT22;6591;51.446;5.404;2023-03-13T04:23:59;14.40;99.90
13049;DHT22;6591;51.446;5.404;2023-03-13T04:26:27;14.40;99.90
13049;DHT22;6591;51.446;5.404;2023-03-13T04:28:56;14.50;99.90
13049;DHT22;6591;51.446;5.404;2023-03-13T04:31:38;14.50;99.90
13049;DHT22;6591;51.446;5.404;2023-03-13T04:34:20;14.50;99.90
13049;DHT22;6591;51.446;5.404;2023-03-13T04:37:04;14.50;99.90
13049;DHT22;6591;51.446;5.404;2023-03-13T04:39:39;14.60;99.90
13049;DHT22;6591;51.446;5.404;2023-03-13T04:42:31;15.10;99.90
13049;DHT22;6591;51.446;5.404;2023-03-13T04:45:16;15.00;99.90
13049;DHT22;6591;51.446;5.404;2023-03-13T04:48:17;14.70;99.90
13049;DHT22;6591;51.446;5.404;2023-03-13T04:51:05;14.70;99.90
13049;DHT22;6591;51.446;5.404;2023-03-13T04:53:55;14.80;99.90
13049;DHT22;6591;51.446;5.404;2023-03-13T04:56:45;14.80;99.90
13049;DHT22;6591;51.446;5.404;2023-03-13T04:59:38;14.90;99.90
13049;DHT22;6591;51.446;5.404;2023-03-13T05:02:34;14.90;99.90
13049;DHT22;6591;51.446;5.404;2023-03-13T05:05:11;15.00;99.90
13049;DHT22;6591;51.446;5.404;2023-03-13T05:08:20;14.90;99.90
13049;DHT22;6591;51.446;5.404;2023-03-13T05:11:10;15.00;99.90
13049;DHT22;6591;51.446;5.404;2023-03-13T05:13:56;15.00;99.90
13049;DHT22;6591;51.446;5.404;2023-03-13T05:16:46;15.00;99.90
13049;DHT22;6591;51.446;5.404;2023-03-13T05:19:43;15.00;99.90
13049;DHT22;6591;51.446;5.404;2023-03-13T05:22:33;15.00;99.90
13049;DHT22;6591;51.446;5.404;2023-03-13T05:25:28;15.10;99.90
13049;DHT22;6591;51.446;5.404;2023-03-13T05:28:06;15.10;99.90
13049;DHT22;6591;51.446;5.404;2023-03-13T05:30:51;15.10;99.90
13049;DHT22;6591;51.446;5.404;2023-03-13T05:33:37;15.30;99.90
13049;DHT22;6591;51.446;5.404;2023-03-13T05:36:31;15.20;99.90
13049;DHT22;6591;51.446;5.404;2023-03-13T05:39:28;15.20;99.90
13049;DHT22;6591;51.446;5.404;2023-03-13T05:42:11;15.30;99.90
13049;DHT22;6591;51.446;5.404;2023-03-13T05:44:51;15.30;99.90
13049;DHT22;6591;51.446;5.404;2023-03-13T05:47:38;15.40;99.90
13049;DHT22;6591;51.446;5.404;2023-03-13T05:50:26;15.30;99.90
13049;DHT22;6591;51.446;5.404;2023-03-13T05:53:19;15.40;99.90
13049;DHT22;6591;51.446;5.404;2023-03-13T05:56:12;15.30;99.90
13049;DHT22;6591;51.446;5.404;2023-03-13T05:58:48;15.50;99.90
13049;DHT22;6591;51.446;5.404;2023-03-13T06:01:34;15.40;99.90
13049;DHT22;6591;51.446;5.404;2023-03-13T06:04:12;15.40;99.90
13049;DHT22;6591;51.446;5.404;2023-03-13T06:06:40;15.40;99.90
13049;DHT22;6591;51.446;5.404;2023-03-13T06:09:08;16.20;99.90
13049;DHT22;6591;51.446;5.404;2023-03-13T06:11:37;15.50;99.90
13049;DHT22;6591;51.446;5.404;2023-03-13T06:14:05;15.50;99.90
13049;DHT22;6591;51.446;5.404;2023-03-13T06:16:39;15.50;99.90
13049;DHT22;6591;51.446;5.404;2023-03-13T06:19:18;15.50;99.90
13049;DHT22;6591;51.446;5.404;2023-03-13T06:21:45;15.50;99.90
13049;DHT22;6591;51.446;5.404;2023-03-13T06:24:13;15.30;99.90
13049;DHT22;6591;51.446;5.404;2023-03-13T06:26:41;16.10;99.90
13049;DHT22;6591;51.446;5.404;2023-03-13T06:29:10;15.60;99.90
13049;DHT22;6591;51.446;5.404;2023-03-13T06:31:38;15.60;99.90
13049;DHT22;6591;51.446;5.404;2023-03-13T06:34:05;15.60;99.90
13049;DHT22;6591;51.446;5.404;2023-03-13T06:36:32;15.60;99.90
13049;DHT22;6591;51.446;5.404;2023-03-13T06:39:00;15.60;99.90
13049;DHT22;6591;51.446;5.404;2023-03-13T06:41:27;15.60;99.90
13049;DHT22;6591;51.446;5.404;2023-03-13T06:43:54;15.70;99.90
13049;DHT22;6591;51.446;5.404;2023-03-13T06:46:23;15.80;99.90
13049;DHT22;6591;51.446;5.404;2023-03-13T06:48:52;15.70;99.90
13049;DHT22;6591;51.446;5.404;2023-03-13T06:51:20;15.70;99.90
13049;DHT22;6591;51.446;5.404;2023-03-13T06:53:49;15.70;99.90
13049;DHT22;6591;51.446;5.404;2023-03-13T06:56:18;15.80;99.90
13049;DHT22;6591;51.446;5.404;2023-03-13T06:58:48;15.80;99.90
13049;DHT22;6591;51.446;5.404;2023-03-13T07:01:16;15.80;99.90
13049;DHT22;6591;51.446;5.404;2023-03-13T07:03:45;15.90;99.90
13049;DHT22;6591;51.446;5.404;2023-03-13T07:06:14;15.90;99.90
13049;DHT22;6591;51.446;5.404;2023-03-13T07:08:43;15.90;99.90
13049;DHT22;6591;51.446;5.404;2023-03-13T07:11:12;16.00;99.90
13049;DHT22;6591;51.446;5.404;2023-03-13T07:13:41;16.00;99.90
13049;DHT22;6591;51.446;5.404;2023-03-13T07:16:11;16.00;99.90
13049;DHT22;6591;51.446;5.404;2023-03-13T07:18:40;16.00;99.90
13049;DHT22;6591;51.446;5.404;2023-03-13T07:21:11;16.10;99.90
13049;DHT22;6591;51.446;5.404;2023-03-13T07:23:39;16.20;99.90
13049;DHT22;6591;51.446;5.404;2023-03-13T07:26:10;16.10;99.90
13049;DHT22;6591;51.446;5.404;2023-03-13T07:28:40;16.20;99.90
13049;DHT22;6591;51.446;5.404;2023-03-13T07:31:16;16.20;99.90
13049;DHT22;6591;51.446;5.404;2023-03-13T07:33:46;16.20;99.90
13049;DHT22;6591;51.446;5.404;2023-03-13T07:36:14;16.30;99.90
13049;DHT22;6591;51.446;5.404;2023-03-13T07:38:42;16.30;99.90
13049;DHT22;6591;51.446;5.404;2023-03-13T07:41:13;16.30;99.90
13049;DHT22;6591;51.446;5.404;2023-03-13T07:43:45;16.50;99.90
13049;DHT22;6591;51.446;5.404;2023-03-13T07:46:15;16.40;99.90
13049;DHT22;6591;51.446;5.404;2023-03-13T07:48:47;16.30;99.90
13049;DHT22;6591;51.446;5.404;2023-03-13T07:51:15;16.40;99.90
13049;DHT22;6591;51.446;5.404;2023-03-13T07:53:49;16.40;99.90
13049;DHT22;6591;51.446;5.404;2023-03-13T07:56:19;16.40;99.90
13049;DHT22;6591;51.446;5.404;2023-03-13T07:58:49;16.40;99.90
13049;DHT22;6591;51.446;5.404;2023-03-13T08:01:25;16.40;99.90
13049;DHT22;6591;51.446;5.404;2023-03-13T08:03:56;16.40;99.90
13049;DHT22;6591;51.446;5.404;2023-03-13T08:06:29;16.40;99.90
13049;DHT22;6591;51.446;5.404;2023-03-13T08:09:03;16.40;99.90
13049;DHT22;6591;51.446;5.404;2023-03-13T08:11:31;16.50;99.90
13049;DHT22;6591;51.446;5.404;2023-03-13T08:13:58;16.50;99.90
13049;DHT22;6591;51.446;5.404;2023-03-13T08:16:27;16.60;99.90
13049;DHT22;6591;51.446;5.404;2023-03-13T08:19:01;16.60;99.90
13049;DHT22;6591;51.446;5.404;2023-03-13T08:21:35;16.70;99.90
13049;DHT22;6591;51.446;5.404;2023-03-13T08:24:05;16.90;99.90
13049;DHT22;6591;51.446;5.404;2023-03-13T08:26:36;16.80;99.90
13049;DHT22;6591;51.446;5.404;2023-03-13T08:29:09;16.90;99.90
13049;DHT22;6591;51.446;5.404;2023-03-13T08:31:47;17.00;99.90
13049;DHT22;6591;51.446;5.404;2023-03-13T08:34:18;17.00;99.90
13049;DHT22;6591;51.446;5.404;2023-03-13T08:36:45;17.10;99.90
13049;DHT22;6591;51.446;5.404;2023-03-13T08:39:18;17.20;99.90
13049;DHT22;6591;51.446;5.404;2023-03-13T08:41:46;17.30;99.90
13049;DHT22;6591;51.446;5.404;2023-03-13T08:44:16;17.50;99.90
13049;DHT22;6591;51.446;5.404;2023-03-13T08:46:45;17.60;99.90
13049;DHT22;6591;51.446;5.404;2023-03-13T08:49:14;17.60;99.90
13049;DHT22;6591;51.446;5.404;2023-03-13T08:51:43;17.80;99.90
13049;DHT22;6591;51.446;5.404;2023-03-13T08:54:10;17.70;99.90
13049;DHT22;6591;51.446;5.404;2023-03-13T08:56:37;17.70;99.90
13049;DHT22;6591;51.446;5.404;2023-03-13T08:59:07;17.80;99.90
13049;DHT22;6591;51.446;5.404;2023-03-13T09:01:35;17.80;99.90
13049;DHT22;6591;51.446;5.404;2023-03-13T09:04:04;17.80;99.90
13049;DHT22;6591;51.446;5.404;2023-03-13T09:06:36;17.80;99.90
13049;DHT22;6591;51.446;5.404;2023-03-13T09:09:06;17.90;99.90
13049;DHT22;6591;51.446;5.404;2023-03-13T09:11:36;17.90;99.90
13049;DHT22;6591;51.446;5.404;2023-03-13T09:14:05;18.00;99.90
13049;DHT22;6591;51.446;5.404;2023-03-13T09:16:34;18.00;99.90
13049;DHT22;6591;51.446;5.404;2023-03-13T09:19:01;18.10;99.90
13049;DHT22;6591;51.446;5.404;2023-03-13T09:21:30;18.00;99.90
13049;DHT22;6591;51.446;5.404;2023-03-13T09:23:59;18.00;99.90
13049;DHT22;6591;51.446;5.404;2023-03-13T09:26:27;18.00;99.90
13049;DHT22;6591;51.446;5.404;2023-03-13T09:28:56;18.00;99.90
13049;DHT22;6591;51.446;5.404;2023-03-13T09:31:26;18.00;99.90
13049;DHT22;6591;51.446;5.404;2023-03-13T09:33:56;17.90;99.90
13049;DHT22;6591;51.446;5.404;2023-03-13T09:36:24;17.90;99.90
13049;DHT22;6591;51.446;5.404;2023-03-13T09:38:54;17.90;99.90
13049;DHT22;6591;51.446;5.404;2023-03-13T09:41:35;17.90;99.90
13049;DHT22;6591;51.446;5.404;2023-03-13T09:44:17;17.90;99.90
13049;DHT22;6591;51.446;5.404;2023-03-13T09:52:23;18.00;99.90
13049;DHT22;6591;51.446;5.404;2023-03-13T09:55:02;18.20;99.90
13049;DHT22;6591;51.446;5.404;2023-03-13T10:00:26;18.40;99.90
13049;DHT22;6591;51.446;5.404;2023-03-13T10:03:06;18.50;99.90
13049;DHT22;6591;51.446;5.404;2023-03-13T10:05:56;18.60;99.90
13049;DHT22;6591;51.446;5.404;2023-03-13T10:08:30;18.70;99.90
13049;DHT22;6591;51.446;5.404;2023-03-13T10:13:47;18.90;99.90
13049;DHT22;6591;51.446;5.404;2023-03-13T10:19:17;19.20;99.90
13049;DHT22;6591;51.446;5.404;2023-03-13T10:21:49;19.30;99.90
13049;DHT22;6591;51.446;5.404;2023-03-13T10:24:32;19.40;99.90
13049;DHT22;6591;51.446;5.404;2023-03-13T10:27:10;19.40;99.90
13049;DHT22;6591;51.446;5.404;2023-03-13T10:29:40;19.40;99.90
13049;DHT22;6591;51.446;5.404;2023-03-13T10:32:12;19.50;99.90
13049;DHT22;6591;51.446;5.404;2023-03-13T10:37:29;19.60;99.90
13049;DHT22;6591;51.446;5.404;2023-03-13T10:40:27;19.60;99.90
13049;DHT22;6591;51.446;5.404;2023-03-13T10:43:03;19.70;99.90
13049;DHT22;6591;51.446;5.404;2023-03-13T10:45:35;19.70;99.90
13049;DHT22;6591;51.446;5.404;2023-03-13T10:50:46;19.80;99.90
13049;DHT22;6591;51.446;5.404;2023-03-13T10:55:59;19.80;99.90
13049;DHT22;6591;51.446;5.404;2023-03-13T10:58:49;19.80;99.90
13049;DHT22;6591;51.446;5.404;2023-03-13T11:01:29;19.90;99.90
13049;DHT22;6591;51.446;5.404;2023-03-13T11:07:26;20.10;99.90
13049;DHT22;6591;51.446;5.404;2023-03-13T11:12:47;20.30;99.90
13049;DHT22;6591;51.446;5.404;2023-03-13T11:15:31;20.30;99.90
13049;DHT22;6591;51.446;5.404;2023-03-13T11:20:44;20.30;99.90
13049;DHT22;6591;51.446;5.404;2023-03-13T11:23:19;20.20;99.90
13049;DHT22;6591;51.446;5.404;2023-03-13T11:31:58;20.10;99.90
13049;DHT22;6591;51.446;5.404;2023-03-13T11:34:39;20.10;99.90
13049;DHT22;6591;51.446;5.404;2023-03-13T11:37:15;20.10;99.90
13049;DHT22;6591;51.446;5.404;2023-03-13T11:52:00;20.20;99.70
13049;DHT22;6591;51.446;5.404;2023-03-13T11:54:57;20.10;99.50
13049;DHT22;6591;51.446;5.404;2023-03-13T12:00:21;20.00;99.90
13049;DHT22;6591;51.446;5.404;2023-03-13T12:05:57;20.10;99.90
13049;DHT22;6591;51.446;5.404;2023-03-13T12:08:38;20.10;99.90
13049;DHT22;6591;51.446;5.404;2023-03-13T12:11:16;20.20;99.90
13049;DHT22;6591;51.446;5.404;2023-03-13T12:14:15;20.30;99.90
13049;DHT22;6591;51.446;5.404;2023-03-13T12:16:52;20.20;99.90
13049;DHT22;6591;51.446;5.404;2023-03-13T12:19:35;20.20;99.90
13049;DHT22;6591;51.446;5.404;2023-03-13T12:22:16;20.20;99.90
13049;DHT22;6591;51.446;5.404;2023-03-13T12:25:04;20.10;99.90
13049;DHT22;6591;51.446;5.404;2023-03-13T12:27:41;20.10;99.90
13049;DHT22;6591;51.446;5.404;2023-03-13T12:30:31;20.00;99.90
13049;DHT22;6591;51.446;5.404;2023-03-13T12:33:23;20.00;99.90
13049;DHT22;6591;51.446;5.404;2023-03-13T12:37:09;19.90;99.90
13049;DHT22;6591;51.446;5.404;2023-03-13T12:39:21;19.90;99.90
13049;DHT22;6591;51.446;5.404;2023-03-13T12:44:33;19.80;99.90
13049;DHT22;6591;51.446;5.404;2023-03-13T12:50:23;19.80;99.80
13049;DHT22;6591;51.446;5.404;2023-03-13T12:59:07;20.10;99.30
13049;DHT22;6591;51.446;5.404;2023-03-13T13:01:49;20.20;98.90
13049;DHT22;6591;51.446;5.404;2023-03-13T13:04:23;20.30;98.60
13049;DHT22;6591;51.446;5.404;2023-03-13T13:07:06;20.30;98.70
13049;DHT22;6591;51.446;5.404;2023-03-13T13:12:43;20.30;98.70
13049;DHT22;6591;51.446;5.404;2023-03-13T13:15:30;20.40;99.00
13049;DHT22;6591;51.446;5.404;2023-03-13T13:18:26;20.50;99.40
13049;DHT22;6591;51.446;5.404;2023-03-13T13:23:34;20.60;99.00
13049;DHT22;6591;51.446;5.404;2023-03-13T13:37:23;21.20;96.80
13049;DHT22;6591;51.446;5.404;2023-03-13T13:43:02;21.30;95.90
13049;DHT22;6591;51.446;5.404;2023-03-13T13:45:34;21.30;96.00
13049;DHT22;6591;51.446;5.404;2023-03-13T13:53:57;21.20;95.60
13049;DHT22;6591;51.446;5.404;2023-03-13T13:59:00;21.20;96.40
13049;DHT22;6591;51.446;5.404;2023-03-13T14:01:42;21.20;95.90
13049;DHT22;6591;51.446;5.404;2023-03-13T14:06:56;21.00;95.30
13049;DHT22;6591;51.446;5.404;2023-03-13T14:12:27;20.90;94.80
13049;DHT22;6591;51.446;5.404;2023-03-13T14:15:07;20.90;94.70
13049;DHT22;6591;51.446;5.404;2023-03-13T14:17:53;20.90;94.90
13049;DHT22;6591;51.446;5.404;2023-03-13T14:20:33;20.90;95.30
13049;DHT22;6591;51.446;5.404;2023-03-13T14:23:08;20.70;95.20
13049;DHT22;6591;51.446;5.404;2023-03-13T14:25:41;20.90;95.60
13049;DHT22;6591;51.446;5.404;2023-03-13T14:28:27;21.10;95.90
13049;DHT22;6591;51.446;5.404;2023-03-13T14:30:56;21.20;95.40
13049;DHT22;6591;51.446;5.404;2023-03-13T14:33:25;21.20;95.50
13049;DHT22;6591;51.446;5.404;2023-03-13T14:35:53;21.30;95.60
13049;DHT22;6591;51.446;5.404;2023-03-13T14:38:26;21.30;95.80
13049;DHT22;6591;51.446;5.404;2023-03-13T14:40:59;21.30;96.10
13049;DHT22;6591;51.446;5.404;2023-03-13T14:43:40;21.30;95.90
13049;DHT22;6591;51.446;5.404;2023-03-13T14:46:15;21.40;95.10
13049;DHT22;6591;51.446;5.404;2023-03-13T14:48:46;21.50;94.70
13049;DHT22;6591;51.446;5.404;2023-03-13T14:51:25;21.50;94.70
13049;DHT22;6591;51.446;5.404;2023-03-13T14:53:58;21.60;93.60
13049;DHT22;6591;51.446;5.404;2023-03-13T14:56:38;21.60;94.10
13049;DHT22;6591;51.446;5.404;2023-03-13T14:59:15;21.60;93.50
13049;DHT22;6591;51.446;5.404;2023-03-13T15:02:12;21.60;93.10
13049;DHT22;6591;51.446;5.404;2023-03-13T15:07:19;20.70;93.30
13049;DHT22;6591;51.446;5.404;2023-03-13T15:09:48;21.40;93.50
13049;DHT22;6591;51.446;5.404;2023-03-13T15:12:19;21.30;93.40
13049;DHT22;6591;51.446;5.404;2023-03-13T15:14:50;21.20;93.30
13049;DHT22;6591;51.446;5.404;2023-03-13T15:17:22;21.10;93.50
13049;DHT22;6591;51.446;5.404;2023-03-13T15:19:55;21.10;93.40
13049;DHT22;6591;51.446;5.404;2023-03-13T15:22:28;21.00;93.10
13049;DHT22;6591;51.446;5.404;2023-03-13T15:24:59;21.00;93.40
13049;DHT22;6591;51.446;5.404;2023-03-13T15:27:33;21.00;93.50
13049;DHT22;6591;51.446;5.404;2023-03-13T15:30:00;21.00;93.70
13049;DHT22;6591;51.446;5.404;2023-03-13T15:32:32;21.00;93.50
13049;DHT22;6591;51.446;5.404;2023-03-13T15:35:04;21.00;93.30
13049;DHT22;6591;51.446;5.404;2023-03-13T15:37:59;21.00;93.10
13049;DHT22;6591;51.446;5.404;2023-03-13T15:40:28;21.00;93.20
13049;DHT22;6591;51.446;5.404;2023-03-13T15:42:57;21.00;93.40
13049;DHT22;6591;51.446;5.404;2023-03-13T15:45:25;21.00;93.00
13049;DHT22;6591;51.446;5.404;2023-03-13T15:47:53;21.00;93.10
13049;DHT22;6591;51.446;5.404;2023-03-13T15:50:20;21.00;93.00
13049;DHT22;6591;51.446;5.404;2023-03-13T15:52:49;21.00;92.60
13049;DHT22;6591;51.446;5.404;2023-03-13T15:55:16;21.00;92.30
13049;DHT22;6591;51.446;5.404;2023-03-13T15:57:45;21.00;92.40
13049;DHT22;6591;51.446;5.404;2023-03-13T16:00:25;21.00;92.50
13049;DHT22;6591;51.446;5.404;2023-03-13T16:02:53;21.00;91.70
13049;DHT22;6591;51.446;5.404;2023-03-13T16:05:20;21.10;92.50
13049;DHT22;6591;51.446;5.404;2023-03-13T16:07:47;21.10;92.20
13049;DHT22;6591;51.446;5.404;2023-03-13T16:10:23;21.10;92.10
13049;DHT22;6591;51.446;5.404;2023-03-13T16:12:53;21.00;91.70
13049;DHT22;6591;51.446;5.404;2023-03-13T16:15:20;20.90;92.00
13049;DHT22;6591;51.446;5.404;2023-03-13T16:17:47;20.90;91.70
13049;DHT22;6591;51.446;5.404;2023-03-13T16:20:17;20.90;91.70
13049;DHT22;6591;51.446;5.404;2023-03-13T16:22:47;20.80;91.80
13049;DHT22;6591;51.446;5.404;2023-03-13T16:25:19;20.80;91.90
13049;DHT22;6591;51.446;5.404;2023-03-13T16:27:48;20.70;91.70
13049;DHT22;6591;51.446;5.404;2023-03-13T16:30:35;20.70;91.70
13049;DHT22;6591;51.446;5.404;2023-03-13T16:33:02;20.60;91.40
13049;DHT22;6591;51.446;5.404;2023-03-13T16:35:29;20.50;91.90
13049;DHT22;6591;51.446;5.404;2023-03-13T16:37:57;20.50;92.30
13049;DHT22;6591;51.446;5.404;2023-03-13T16:40:28;20.50;92.10
13049;DHT22;6591;51.446;5.404;2023-03-13T16:42:57;20.40;91.60
13049;DHT22;6591;51.446;5.404;2023-03-13T16:45:24;20.40;91.50
13049;DHT22;6591;51.446;5.404;2023-03-13T16:47:52;20.30;91.30
13049;DHT22;6591;51.446;5.404;2023-03-13T16:50:34;20.20;91.40
13049;DHT22;6591;51.446;5.404;2023-03-13T16:53:03;19.90;91.10
13049;DHT22;6591;51.446;5.404;2023-03-13T16:55:30;19.70;91.60
13049;DHT22;6591;51.446;5.404;2023-03-13T16:58:02;20.90;92.20
13049;DHT22;6591;51.446;5.404;2023-03-13T17:00:31;19.50;91.90
13049;DHT22;6591;51.446;5.404;2023-03-13T17:02:58;19.30;92.00
13049;DHT22;6591;51.446;5.404;2023-03-13T17:05:27;19.20;92.00
13049;DHT22;6591;51.446;5.404;2023-03-13T17:07:54;19.10;92.20
13049;DHT22;6591;51.446;5.404;2023-03-13T17:10:27;19.10;92.50
13049;DHT22;6591;51.446;5.404;2023-03-13T17:12:55;19.00;92.50
13049;DHT22;6591;51.446;5.404;2023-03-13T17:15:24;19.00;92.60
13049;DHT22;6591;51.446;5.404;2023-03-13T17:17:52;19.00;92.50
13049;DHT22;6591;51.446;5.404;2023-03-13T17:20:24;19.00;92.50
13049;DHT22;6591;51.446;5.404;2023-03-13T17:22:53;18.90;92.50
13049;DHT22;6591;51.446;5.404;2023-03-13T17:25:24;18.80;92.50
13049;DHT22;6591;51.446;5.404;2023-03-13T17:27:51;18.80;92.60
13049;DHT22;6591;51.446;5.404;2023-03-13T17:30:24;18.70;92.50
13049;DHT22;6591;51.446;5.404;2023-03-13T17:32:53;18.60;92.50
13049;DHT22;6591;51.446;5.404;2023-03-13T17:35:22;18.50;92.50
13049;DHT22;6591;51.446;5.404;2023-03-13T17:37:50;18.40;92.60
13049;DHT22;6591;51.446;5.404;2023-03-13T17:40:22;18.20;92.70
13049;DHT22;6591;51.446;5.404;2023-03-13T17:42:53;18.10;92.70
13049;DHT22;6591;51.446;5.404;2023-03-13T17:45:22;18.00;92.90
13049;DHT22;6591;51.446;5.404;2023-03-13T17:47:49;17.90;93.10
13049;DHT22;6591;51.446;5.404;2023-03-13T17:50:20;17.80;93.20
13049;DHT22;6591;51.446;5.404;2023-03-13T17:52:49;17.70;93.30
13049;DHT22;6591;51.446;5.404;2023-03-13T17:55:16;17.60;93.40
13049;DHT22;6591;51.446;5.404;2023-03-13T17:57:44;17.60;93.60
13049;DHT22;6591;51.446;5.404;2023-03-13T18:00:23;17.40;93.70
13049;DHT22;6591;51.446;5.404;2023-03-13T18:02:55;17.30;93.70
13049;DHT22;6591;51.446;5.404;2023-03-13T18:05:24;17.30;94.00
13049;DHT22;6591;51.446;5.404;2023-03-13T18:07:54;17.40;94.10
13049;DHT22;6591;51.446;5.404;2023-03-13T18:10:27;17.10;94.20
13049;DHT22;6591;51.446;5.404;2023-03-13T18:12:55;17.10;94.30
13049;DHT22;6591;51.446;5.404;2023-03-13T18:15:24;17.00;94.50